Jordan, Minnesota
Current Conditions -  °F | °C
As of 6:53 AM on Monday 22 Dec 2014 (Local Time) from KFCM Reporting Station
Haze Haze  
Wind Chill: 30°   Ceiling: 700
Heat Index: 38°   Visibility: 5mi
Dew Point: 35°   Wind: 13mph
Humidity: 89%   Direction: 140°SE
Pressure: 29.64"   Gusts: NA
Location:  44.67°N, 93.63°W
Report Text: KFCM 221253Z 14011KT 5SM BR OVC007 03/02 A2964 RMK AO2 SLP044 T00330017
Loading
Personal Weather Stations






























Interactive Weather Map New forecast layout! Learn more

10-Day Weather Forecast

Advertisements
Track Severe Weather on mobile